sensor_id;sensor_type;location;lat;lon;timestamp;P1;durP1;ratioP1;P2;durP2;ratioP2
23252;SDS011;11795;47.054;15.408;2022-12-29T00:01:25;26.0;;;18.7;;
23252;SDS011;11795;47.054;15.408;2022-12-29T00:03:25;29.3;;;21.1;;
23252;SDS011;11795;47.054;15.408;2022-12-29T00:05:25;29.3;;;21.1;;
23252;SDS011;11795;47.054;15.408;2022-12-29T00:07:25;29.3;;;21.1;;
23252;SDS011;11795;47.054;15.408;2022-12-29T00:09:25;28.5;;;20.2;;
23252;SDS011;11795;47.054;15.408;2022-12-29T00:11:26;28.5;;;20.2;;
23252;SDS011;11795;47.054;15.408;2022-12-29T00:13:35;26.2;;;18.8;;
23252;SDS011;11795;47.054;15.408;2022-12-29T00:15:35;26.2;;;18.8;;
23252;SDS011;11795;47.054;15.408;2022-12-29T00:17:25;26.2;;;18.8;;
23252;SDS011;11795;47.054;15.408;2022-12-29T00:19:35;25.3;;;18.4;;
23252;SDS011;11795;47.054;15.408;2022-12-29T00:21:35;25.3;;;18.4;;
23252;SDS011;11795;47.054;15.408;2022-12-29T00:23:36;24.4;;;18.1;;
23252;SDS011;11795;47.054;15.408;2022-12-29T00:25:35;24.4;;;18.1;;
23252;SDS011;11795;47.054;15.408;2022-12-29T00:27:35;29.1;;;19.8;;
23252;SDS011;11795;47.054;15.408;2022-12-29T00:29:35;29.1;;;19.8;;
23252;SDS011;11795;47.054;15.408;2022-12-29T00:31:35;29.1;;;19.8;;
23252;SDS011;11795;47.054;15.408;2022-12-29T00:33:35;27.0;;;19.2;;
23252;SDS011;11795;47.054;15.408;2022-12-29T00:35:27;27.0;;;19.2;;
23252;SDS011;11795;47.054;15.408;2022-12-29T00:37:35;32.5;;;22.8;;
23252;SDS011;11795;47.054;15.408;2022-12-29T00:39:35;32.5;;;22.8;;
23252;SDS011;11795;47.054;15.408;2022-12-29T00:41:35;32.5;;;22.8;;
23252;SDS011;11795;47.054;15.408;2022-12-29T00:43:35;28.7;;;20.4;;
23252;SDS011;11795;47.054;15.408;2022-12-29T00:45:25;28.7;;;20.4;;
23252;SDS011;11795;47.054;15.408;2022-12-29T00:47:25;28.7;;;20.4;;
23252;SDS011;11795;47.054;15.408;2022-12-29T00:49:32;26.3;;;19.3;;
23252;SDS011;11795;47.054;15.408;2022-12-29T00:51:25;26.3;;;19.3;;
23252;SDS011;11795;47.054;15.408;2022-12-29T00:53:25;24.5;;;18.3;;
23252;SDS011;11795;47.054;15.408;2022-12-29T00:55:25;24.5;;;18.3;;
23252;SDS011;11795;47.054;15.408;2022-12-29T00:57:25;24.5;;;18.3;;
23252;SDS011;11795;47.054;15.408;2022-12-29T00:59:25;25.3;;;18.7;;
23252;SDS011;11795;47.054;15.408;2022-12-29T01:01:25;25.3;;;18.7;;
23252;SDS011;11795;47.054;15.408;2022-12-29T01:03:25;27.2;;;19.8;;
23252;SDS011;11795;47.054;15.408;2022-12-29T01:05:25;27.2;;;19.8;;
23252;SDS011;11795;47.054;15.408;2022-12-29T01:07:25;27.2;;;19.8;;
23252;SDS011;11795;47.054;15.408;2022-12-29T01:09:35;25.6;;;19.3;;
23252;SDS011;11795;47.054;15.408;2022-12-29T01:11:25;25.6;;;19.3;;
23252;SDS011;11795;47.054;15.408;2022-12-29T01:13:25;27.2;;;19.2;;
23252;SDS011;11795;47.054;15.408;2022-12-29T01:15:25;27.2;;;19.2;;
23252;SDS011;11795;47.054;15.408;2022-12-29T01:17:25;27.2;;;19.2;;
23252;SDS011;11795;47.054;15.408;2022-12-29T01:19:25;26.3;;;18.6;;
23252;SDS011;11795;47.054;15.408;2022-12-29T01:21:25;26.3;;;18.6;;
23252;SDS011;11795;47.054;15.408;2022-12-29T01:23:25;26.0;;;18.7;;
23252;SDS011;11795;47.054;15.408;2022-12-29T01:25:25;26.0;;;18.7;;
23252;SDS011;11795;47.054;15.408;2022-12-29T01:27:25;26.0;;;18.7;;
23252;SDS011;11795;47.054;15.408;2022-12-29T01:29:25;26.8;;;18.7;;
23252;SDS011;11795;47.054;15.408;2022-12-29T01:31:25;26.8;;;18.7;;
23252;SDS011;11795;47.054;15.408;2022-12-29T01:33:25;26.8;;;18.7;;
23252;SDS011;11795;47.054;15.408;2022-12-29T01:35:25;26.8;;;18.7;;
23252;SDS011;11795;47.054;15.408;2022-12-29T01:37:25;26.8;;;18.7;;
23252;SDS011;11795;47.054;15.408;2022-12-29T01:39:25;27.5;;;19.6;;
23252;SDS011;11795;47.054;15.408;2022-12-29T01:41:25;27.5;;;19.6;;
23252;SDS011;11795;47.054;15.408;2022-12-29T01:45:25;25.3;;;18.9;;
23252;SDS011;11795;47.054;15.408;2022-12-29T01:47:26;25.3;;;18.9;;
23252;SDS011;11795;47.054;15.408;2022-12-29T01:49:26;29.9;;;19.5;;
23252;SDS011;11795;47.054;15.408;2022-12-29T01:51:25;29.9;;;19.5;;
23252;SDS011;11795;47.054;15.408;2022-12-29T01:53:26;24.8;;;19.3;;
23252;SDS011;11795;47.054;15.408;2022-12-29T01:55:25;24.8;;;19.3;;
23252;SDS011;11795;47.054;15.408;2022-12-29T01:57:26;24.8;;;19.3;;
23252;SDS011;11795;47.054;15.408;2022-12-29T01:59:26;27.2;;;19.8;;
23252;SDS011;11795;47.054;15.408;2022-12-29T02:01:25;27.2;;;19.8;;
23252;SDS011;11795;47.054;15.408;2022-12-29T02:03:26;28.8;;;20.5;;
23252;SDS011;11795;47.054;15.408;2022-12-29T02:05:27;28.8;;;20.5;;
23252;SDS011;11795;47.054;15.408;2022-12-29T02:07:25;28.8;;;20.5;;
23252;SDS011;11795;47.054;15.408;2022-12-29T02:09:25;30.5;;;20.6;;
23252;SDS011;11795;47.054;15.408;2022-12-29T02:11:26;30.5;;;20.6;;
23252;SDS011;11795;47.054;15.408;2022-12-29T02:13:25;26.3;;;19.4;;
23252;SDS011;11795;47.054;15.408;2022-12-29T02:15:28;26.3;;;19.4;;
23252;SDS011;11795;47.054;15.408;2022-12-29T02:17:28;26.3;;;19.4;;
23252;SDS011;11795;47.054;15.408;2022-12-29T02:19:34;27.0;;;19.6;;
23252;SDS011;11795;47.054;15.408;2022-12-29T02:21:31;27.0;;;19.6;;
23252;SDS011;11795;47.054;15.408;2022-12-29T02:23:31;30.0;;;19.9;;
23252;SDS011;11795;47.054;15.408;2022-12-29T02:25:32;30.0;;;19.9;;
23252;SDS011;11795;47.054;15.408;2022-12-29T02:31:26;27.8;;;19.5;;
23252;SDS011;11795;47.054;15.408;2022-12-29T02:33:30;29.9;;;20.6;;
23252;SDS011;11795;47.054;15.408;2022-12-29T02:35:28;29.9;;;20.6;;
23252;SDS011;11795;47.054;15.408;2022-12-29T02:37:28;29.9;;;20.6;;
23252;SDS011;11795;47.054;15.408;2022-12-29T02:39:27;28.2;;;21.1;;
23252;SDS011;11795;47.054;15.408;2022-12-29T02:41:27;28.2;;;21.1;;
23252;SDS011;11795;47.054;15.408;2022-12-29T02:43:26;28.2;;;20.4;;
23252;SDS011;11795;47.054;15.408;2022-12-29T02:45:26;28.2;;;20.4;;
23252;SDS011;11795;47.054;15.408;2022-12-29T02:47:27;28.2;;;20.4;;
23252;SDS011;11795;47.054;15.408;2022-12-29T02:49:31;29.4;;;18.5;;
23252;SDS011;11795;47.054;15.408;2022-12-29T02:51:26;29.4;;;18.5;;
23252;SDS011;11795;47.054;15.408;2022-12-29T02:53:35;26.9;;;18.9;;
23252;SDS011;11795;47.054;15.408;2022-12-29T02:55:25;26.9;;;18.9;;
23252;SDS011;11795;47.054;15.408;2022-12-29T02:57:28;26.9;;;18.9;;
23252;SDS011;11795;47.054;15.408;2022-12-29T02:59:25;25.9;;;18.2;;
23252;SDS011;11795;47.054;15.408;2022-12-29T03:01:29;25.9;;;18.2;;
23252;SDS011;11795;47.054;15.408;2022-12-29T03:03:28;26.1;;;18.2;;
23252;SDS011;11795;47.054;15.408;2022-12-29T03:05:30;26.1;;;18.2;;
23252;SDS011;11795;47.054;15.408;2022-12-29T03:07:27;26.1;;;18.2;;
23252;SDS011;11795;47.054;15.408;2022-12-29T03:09:27;28.4;;;18.2;;
23252;SDS011;11795;47.054;15.408;2022-12-29T03:11:41;28.4;;;18.2;;
23252;SDS011;11795;47.054;15.408;2022-12-29T03:13:35;24.0;;;17.6;;
23252;SDS011;11795;47.054;15.408;2022-12-29T03:15:36;24.0;;;17.6;;
23252;SDS011;11795;47.054;15.408;2022-12-29T03:17:26;24.0;;;17.6;;
23252;SDS011;11795;47.054;15.408;2022-12-29T03:19:26;23.6;;;17.4;;
23252;SDS011;11795;47.054;15.408;2022-12-29T03:21:36;23.6;;;17.4;;
23252;SDS011;11795;47.054;15.408;2022-12-29T03:23:25;24.8;;;17.7;;
23252;SDS011;11795;47.054;15.408;2022-12-29T03:25:26;24.8;;;17.7;;
23252;SDS011;11795;47.054;15.408;2022-12-29T03:27:27;24.8;;;17.7;;
23252;SDS011;11795;47.054;15.408;2022-12-29T03:29:25;22.4;;;16.7;;
23252;SDS011;11795;47.054;15.408;2022-12-29T03:31:25;22.4;;;16.7;;
23252;SDS011;11795;47.054;15.408;2022-12-29T03:33:27;25.8;;;18.0;;
23252;SDS011;11795;47.054;15.408;2022-12-29T03:35:27;25.8;;;18.0;;
23252;SDS011;11795;47.054;15.408;2022-12-29T03:37:26;25.8;;;18.0;;
23252;SDS011;11795;47.054;15.408;2022-12-29T03:39:25;23.9;;;17.5;;
23252;SDS011;11795;47.054;15.408;2022-12-29T03:41:26;23.9;;;17.5;;
23252;SDS011;11795;47.054;15.408;2022-12-29T03:43:25;26.6;;;18.2;;
23252;SDS011;11795;47.054;15.408;2022-12-29T03:45:25;26.6;;;18.2;;
23252;SDS011;11795;47.054;15.408;2022-12-29T03:47:25;26.6;;;18.2;;
23252;SDS011;11795;47.054;15.408;2022-12-29T03:49:25;25.1;;;17.7;;
23252;SDS011;11795;47.054;15.408;2022-12-29T03:51:25;25.1;;;17.7;;
23252;SDS011;11795;47.054;15.408;2022-12-29T03:53:25;25.8;;;17.9;;
23252;SDS011;11795;47.054;15.408;2022-12-29T03:55:25;25.8;;;17.9;;
23252;SDS011;11795;47.054;15.408;2022-12-29T03:57:25;25.8;;;17.9;;
23252;SDS011;11795;47.054;15.408;2022-12-29T03:59:25;21.4;;;15.4;;
23252;SDS011;11795;47.054;15.408;2022-12-29T04:01:25;21.4;;;15.4;;
23252;SDS011;11795;47.054;15.408;2022-12-29T04:03:25;24.6;;;17.1;;
23252;SDS011;11795;47.054;15.408;2022-12-29T04:05:25;24.6;;;17.1;;
23252;SDS011;11795;47.054;15.408;2022-12-29T04:07:25;24.6;;;17.1;;
23252;SDS011;11795;47.054;15.408;2022-12-29T04:09:25;22.3;;;16.1;;
23252;SDS011;11795;47.054;15.408;2022-12-29T04:11:25;22.3;;;16.1;;
23252;SDS011;11795;47.054;15.408;2022-12-29T04:13:25;24.6;;;17.2;;
23252;SDS011;11795;47.054;15.408;2022-12-29T04:15:26;24.6;;;17.2;;
23252;SDS011;11795;47.054;15.408;2022-12-29T04:17:25;24.6;;;17.2;;
23252;SDS011;11795;47.054;15.408;2022-12-29T04:19:25;23.3;;;15.6;;
23252;SDS011;11795;47.054;15.408;2022-12-29T04:21:25;23.3;;;15.6;;
23252;SDS011;11795;47.054;15.408;2022-12-29T04:23:25;24.5;;;17.2;;
23252;SDS011;11795;47.054;15.408;2022-12-29T04:25:25;24.5;;;17.2;;
23252;SDS011;11795;47.054;15.408;2022-12-29T04:27:25;24.5;;;17.2;;
23252;SDS011;11795;47.054;15.408;2022-12-29T04:29:25;23.3;;;16.6;;
23252;SDS011;11795;47.054;15.408;2022-12-29T04:31:25;23.3;;;16.6;;
23252;SDS011;11795;47.054;15.408;2022-12-29T04:33:25;23.8;;;16.6;;
23252;SDS011;11795;47.054;15.408;2022-12-29T04:35:25;23.8;;;16.6;;
23252;SDS011;11795;47.054;15.408;2022-12-29T04:37:25;23.8;;;16.6;;
23252;SDS011;11795;47.054;15.408;2022-12-29T04:39:25;21.5;;;15.2;;
23252;SDS011;11795;47.054;15.408;2022-12-29T04:41:25;21.5;;;15.2;;
23252;SDS011;11795;47.054;15.408;2022-12-29T04:43:25;19.6;;;13.9;;
23252;SDS011;11795;47.054;15.408;2022-12-29T04:45:25;19.6;;;13.9;;
23252;SDS011;11795;47.054;15.408;2022-12-29T04:47:25;19.6;;;13.9;;
23252;SDS011;11795;47.054;15.408;2022-12-29T04:49:25;19.9;;;13.9;;
23252;SDS011;11795;47.054;15.408;2022-12-29T04:51:25;19.9;;;13.9;;
23252;SDS011;11795;47.054;15.408;2022-12-29T04:53:25;18.3;;;13.3;;
23252;SDS011;11795;47.054;15.408;2022-12-29T04:55:25;18.3;;;13.3;;
23252;SDS011;11795;47.054;15.408;2022-12-29T04:57:25;18.3;;;13.3;;
23252;SDS011;11795;47.054;15.408;2022-12-29T04:59:25;18.7;;;13.6;;
23252;SDS011;11795;47.054;15.408;2022-12-29T05:01:25;18.7;;;13.6;;
23252;SDS011;11795;47.054;15.408;2022-12-29T05:03:25;17.9;;;12.6;;
23252;SDS011;11795;47.054;15.408;2022-12-29T05:05:25;17.9;;;12.6;;
23252;SDS011;11795;47.054;15.408;2022-12-29T05:07:25;17.9;;;12.6;;
23252;SDS011;11795;47.054;15.408;2022-12-29T05:09:25;21.1;;;14.6;;
23252;SDS011;11795;47.054;15.408;2022-12-29T05:11:25;21.1;;;14.6;;
23252;SDS011;11795;47.054;15.408;2022-12-29T05:13:25;19.8;;;14.4;;
23252;SDS011;11795;47.054;15.408;2022-12-29T05:15:25;19.8;;;14.4;;
23252;SDS011;11795;47.054;15.408;2022-12-29T05:17:25;19.8;;;14.4;;
23252;SDS011;11795;47.054;15.408;2022-12-29T05:19:25;18.6;;;13.2;;
23252;SDS011;11795;47.054;15.408;2022-12-29T05:21:25;18.6;;;13.2;;
23252;SDS011;11795;47.054;15.408;2022-12-29T05:23:25;25.4;;;16.4;;
23252;SDS011;11795;47.054;15.408;2022-12-29T05:25:25;25.4;;;16.4;;
23252;SDS011;11795;47.054;15.408;2022-12-29T05:27:25;25.4;;;16.4;;
23252;SDS011;11795;47.054;15.408;2022-12-29T05:29:25;21.0;;;14.3;;
23252;SDS011;11795;47.054;15.408;2022-12-29T05:31:26;21.0;;;14.3;;
23252;SDS011;11795;47.054;15.408;2022-12-29T05:33:25;20.6;;;14.5;;
23252;SDS011;11795;47.054;15.408;2022-12-29T05:35:26;20.6;;;14.5;;
23252;SDS011;11795;47.054;15.408;2022-12-29T05:37:25;20.6;;;14.5;;
23252;SDS011;11795;47.054;15.408;2022-12-29T05:39:25;18.1;;;13.5;;
23252;SDS011;11795;47.054;15.408;2022-12-29T05:41:25;18.1;;;13.5;;
23252;SDS011;11795;47.054;15.408;2022-12-29T05:43:25;18.1;;;14.0;;
23252;SDS011;11795;47.054;15.408;2022-12-29T05:45:26;18.1;;;14.0;;
23252;SDS011;11795;47.054;15.408;2022-12-29T05:47:25;18.1;;;14.0;;
23252;SDS011;11795;47.054;15.408;2022-12-29T05:49:25;18.5;;;13.9;;
23252;SDS011;11795;47.054;15.408;2022-12-29T05:51:25;18.5;;;13.9;;
23252;SDS011;11795;47.054;15.408;2022-12-29T05:53:25;19.7;;;13.6;;
23252;SDS011;11795;47.054;15.408;2022-12-29T05:55:25;19.7;;;13.6;;
23252;SDS011;11795;47.054;15.408;2022-12-29T05:57:26;19.7;;;13.6;;
23252;SDS011;11795;47.054;15.408;2022-12-29T05:59:26;19.1;;;13.2;;
23252;SDS011;11795;47.054;15.408;2022-12-29T06:01:25;19.1;;;13.2;;
23252;SDS011;11795;47.054;15.408;2022-12-29T06:03:26;16.4;;;12.0;;
23252;SDS011;11795;47.054;15.408;2022-12-29T06:05:25;16.4;;;12.0;;
23252;SDS011;11795;47.054;15.408;2022-12-29T06:07:25;16.4;;;12.0;;
23252;SDS011;11795;47.054;15.408;2022-12-29T06:09:25;20.9;;;14.5;;
23252;SDS011;11795;47.054;15.408;2022-12-29T06:11:25;20.9;;;14.5;;
23252;SDS011;11795;47.054;15.408;2022-12-29T06:13:27;26.5;;;16.1;;
23252;SDS011;11795;47.054;15.408;2022-12-29T06:15:26;26.5;;;16.1;;
23252;SDS011;11795;47.054;15.408;2022-12-29T06:17:26;26.5;;;16.1;;
23252;SDS011;11795;47.054;15.408;2022-12-29T06:19:25;20.0;;;15.5;;
23252;SDS011;11795;47.054;15.408;2022-12-29T06:21:25;20.0;;;15.5;;
23252;SDS011;11795;47.054;15.408;2022-12-29T06:23:26;20.3;;;14.5;;
23252;SDS011;11795;47.054;15.408;2022-12-29T06:25:26;20.3;;;14.5;;
23252;SDS011;11795;47.054;15.408;2022-12-29T06:27:25;20.3;;;14.5;;
23252;SDS011;11795;47.054;15.408;2022-12-29T06:29:26;22.9;;;15.9;;
23252;SDS011;11795;47.054;15.408;2022-12-29T06:31:26;22.9;;;15.9;;
23252;SDS011;11795;47.054;15.408;2022-12-29T06:33:26;21.8;;;15.8;;
23252;SDS011;11795;47.054;15.408;2022-12-29T06:35:26;21.8;;;15.8;;
23252;SDS011;11795;47.054;15.408;2022-12-29T06:37:26;21.8;;;15.8;;
23252;SDS011;11795;47.054;15.408;2022-12-29T06:39:26;20.9;;;15.8;;
23252;SDS011;11795;47.054;15.408;2022-12-29T06:41:26;20.9;;;15.8;;
23252;SDS011;11795;47.054;15.408;2022-12-29T06:43:26;22.4;;;15.0;;
23252;SDS011;11795;47.054;15.408;2022-12-29T06:45:26;22.4;;;15.0;;
23252;SDS011;11795;47.054;15.408;2022-12-29T06:47:26;22.4;;;15.0;;
23252;SDS011;11795;47.054;15.408;2022-12-29T06:49:26;22.4;;;16.2;;
23252;SDS011;11795;47.054;15.408;2022-12-29T06:51:26;22.4;;;16.2;;
23252;SDS011;11795;47.054;15.408;2022-12-29T06:53:26;25.5;;;17.7;;
23252;SDS011;11795;47.054;15.408;2022-12-29T06:55:26;25.5;;;17.7;;
23252;SDS011;11795;47.054;15.408;2022-12-29T06:57:26;25.5;;;17.7;;
23252;SDS011;11795;47.054;15.408;2022-12-29T06:59:26;27.0;;;19.4;;
23252;SDS011;11795;47.054;15.408;2022-12-29T07:01:26;27.0;;;19.4;;
23252;SDS011;11795;47.054;15.408;2022-12-29T07:03:26;26.2;;;18.8;;
23252;SDS011;11795;47.054;15.408;2022-12-29T07:05:27;26.2;;;18.8;;
23252;SDS011;11795;47.054;15.408;2022-12-29T07:07:26;26.2;;;18.8;;
23252;SDS011;11795;47.054;15.408;2022-12-29T07:09:26;24.6;;;18.4;;
23252;SDS011;11795;47.054;15.408;2022-12-29T07:11:26;24.6;;;18.4;;
23252;SDS011;11795;47.054;15.408;2022-12-29T07:13:26;25.1;;;18.2;;
23252;SDS011;11795;47.054;15.408;2022-12-29T07:15:26;25.1;;;18.2;;
23252;SDS011;11795;47.054;15.408;2022-12-29T07:17:26;25.1;;;18.2;;
23252;SDS011;11795;47.054;15.408;2022-12-29T07:19:26;29.2;;;19.9;;
23252;SDS011;11795;47.054;15.408;2022-12-29T07:21:26;29.2;;;19.9;;
23252;SDS011;11795;47.054;15.408;2022-12-29T07:23:26;27.8;;;19.5;;
23252;SDS011;11795;47.054;15.408;2022-12-29T07:25:26;27.8;;;19.5;;
23252;SDS011;11795;47.054;15.408;2022-12-29T07:27:26;27.8;;;19.5;;
23252;SDS011;11795;47.054;15.408;2022-12-29T07:29:26;25.5;;;17.9;;
23252;SDS011;11795;47.054;15.408;2022-12-29T07:31:26;25.5;;;17.9;;
23252;SDS011;11795;47.054;15.408;2022-12-29T07:33:27;24.4;;;17.2;;
23252;SDS011;11795;47.054;15.408;2022-12-29T07:35:26;24.4;;;17.2;;
23252;SDS011;11795;47.054;15.408;2022-12-29T07:37:26;24.4;;;17.2;;
23252;SDS011;11795;47.054;15.408;2022-12-29T07:39:26;26.2;;;17.4;;
23252;SDS011;11795;47.054;15.408;2022-12-29T07:41:26;26.2;;;17.4;;
23252;SDS011;11795;47.054;15.408;2022-12-29T07:43:26;22.6;;;16.4;;
23252;SDS011;11795;47.054;15.408;2022-12-29T07:45:26;22.6;;;16.4;;
23252;SDS011;11795;47.054;15.408;2022-12-29T07:47:26;22.6;;;16.4;;
23252;SDS011;11795;47.054;15.408;2022-12-29T07:49:26;25.8;;;16.9;;
23252;SDS011;11795;47.054;15.408;2022-12-29T07:51:26;25.8;;;16.9;;
23252;SDS011;11795;47.054;15.408;2022-12-29T07:53:26;22.7;;;15.8;;
23252;SDS011;11795;47.054;15.408;2022-12-29T07:55:26;22.7;;;15.8;;
23252;SDS011;11795;47.054;15.408;2022-12-29T07:57:26;22.7;;;15.8;;
23252;SDS011;11795;47.054;15.408;2022-12-29T07:59:26;21.1;;;15.7;;
23252;SDS011;11795;47.054;15.408;2022-12-29T08:01:26;21.1;;;15.7;;
23252;SDS011;11795;47.054;15.408;2022-12-29T08:03:26;21.2;;;16.0;;
23252;SDS011;11795;47.054;15.408;2022-12-29T08:05:26;21.2;;;16.0;;
23252;SDS011;11795;47.054;15.408;2022-12-29T08:07:26;21.2;;;16.0;;
23252;SDS011;11795;47.054;15.408;2022-12-29T08:09:26;21.5;;;15.1;;
23252;SDS011;11795;47.054;15.408;2022-12-29T08:11:26;21.5;;;15.1;;
23252;SDS011;11795;47.054;15.408;2022-12-29T08:13:26;21.9;;;16.9;;
23252;SDS011;11795;47.054;15.408;2022-12-29T08:15:26;21.9;;;16.9;;
23252;SDS011;11795;47.054;15.408;2022-12-29T08:17:26;21.9;;;16.9;;
23252;SDS011;11795;47.054;15.408;2022-12-29T08:19:26;20.6;;;14.3;;
23252;SDS011;11795;47.054;15.408;2022-12-29T08:21:26;20.6;;;14.3;;
23252;SDS011;11795;47.054;15.408;2022-12-29T08:23:26;17.9;;;14.1;;
23252;SDS011;11795;47.054;15.408;2022-12-29T08:25:26;17.9;;;14.1;;
23252;SDS011;11795;47.054;15.408;2022-12-29T08:27:26;17.9;;;14.1;;
23252;SDS011;11795;47.054;15.408;2022-12-29T08:29:26;19.5;;;13.9;;
23252;SDS011;11795;47.054;15.408;2022-12-29T08:31:26;19.5;;;13.9;;
23252;SDS011;11795;47.054;15.408;2022-12-29T08:33:26;19.1;;;14.9;;
23252;SDS011;11795;47.054;15.408;2022-12-29T08:35:26;19.1;;;14.9;;
23252;SDS011;11795;47.054;15.408;2022-12-29T08:37:26;19.1;;;14.9;;
23252;SDS011;11795;47.054;15.408;2022-12-29T08:39:26;20.7;;;14.7;;
23252;SDS011;11795;47.054;15.408;2022-12-29T08:41:26;20.7;;;14.7;;
23252;SDS011;11795;47.054;15.408;2022-12-29T08:43:26;19.4;;;13.5;;
23252;SDS011;11795;47.054;15.408;2022-12-29T08:45:26;19.4;;;13.5;;
23252;SDS011;11795;47.054;15.408;2022-12-29T08:47:26;19.4;;;13.5;;
23252;SDS011;11795;47.054;15.408;2022-12-29T08:49:26;19.4;;;15.0;;
23252;SDS011;11795;47.054;15.408;2022-12-29T08:51:26;19.4;;;15.0;;
23252;SDS011;11795;47.054;15.408;2022-12-29T08:53:26;19.8;;;14.5;;
23252;SDS011;11795;47.054;15.408;2022-12-29T08:55:26;19.8;;;14.5;;
23252;SDS011;11795;47.054;15.408;2022-12-29T08:57:26;19.8;;;14.5;;
23252;SDS011;11795;47.054;15.408;2022-12-29T08:59:26;20.6;;;15.1;;
23252;SDS011;11795;47.054;15.408;2022-12-29T09:01:26;20.6;;;15.1;;
23252;SDS011;11795;47.054;15.408;2022-12-29T09:03:26;20.3;;;15.7;;
23252;SDS011;11795;47.054;15.408;2022-12-29T09:05:26;20.3;;;15.7;;
23252;SDS011;11795;47.054;15.408;2022-12-29T09:07:26;20.3;;;15.7;;
23252;SDS011;11795;47.054;15.408;2022-12-29T09:09:26;21.2;;;16.3;;
23252;SDS011;11795;47.054;15.408;2022-12-29T09:11:26;21.2;;;16.3;;
23252;SDS011;11795;47.054;15.408;2022-12-29T09:13:26;19.1;;;14.3;;
23252;SDS011;11795;47.054;15.408;2022-12-29T09:15:26;19.1;;;14.3;;
23252;SDS011;11795;47.054;15.408;2022-12-29T09:17:36;19.1;;;14.3;;
23252;SDS011;11795;47.054;15.408;2022-12-29T09:19:26;16.6;;;12.9;;
23252;SDS011;11795;47.054;15.408;2022-12-29T09:21:26;16.6;;;12.9;;
23252;SDS011;11795;47.054;15.408;2022-12-29T09:23:26;18.5;;;12.9;;
23252;SDS011;11795;47.054;15.408;2022-12-29T09:25:26;18.5;;;12.9;;
23252;SDS011;11795;47.054;15.408;2022-12-29T09:27:26;18.5;;;12.9;;
23252;SDS011;11795;47.054;15.408;2022-12-29T09:29:26;14.9;;;11.6;;
23252;SDS011;11795;47.054;15.408;2022-12-29T09:31:26;14.9;;;11.6;;
23252;SDS011;11795;47.054;15.408;2022-12-29T09:33:26;15.6;;;11.4;;
23252;SDS011;11795;47.054;15.408;2022-12-29T09:35:26;15.6;;;11.4;;
23252;SDS011;11795;47.054;15.408;2022-12-29T09:37:26;15.6;;;11.4;;
23252;SDS011;11795;47.054;15.408;2022-12-29T09:39:26;14.7;;;11.6;;
23252;SDS011;11795;47.054;15.408;2022-12-29T09:41:27;14.7;;;11.6;;
23252;SDS011;11795;47.054;15.408;2022-12-29T09:43:29;14.8;;;11.4;;
23252;SDS011;11795;47.054;15.408;2022-12-29T09:45:27;14.8;;;11.4;;
23252;SDS011;11795;47.054;15.408;2022-12-29T09:47:26;14.8;;;11.4;;
23252;SDS011;11795;47.054;15.408;2022-12-29T09:49:27;15.9;;;11.7;;
23252;SDS011;11795;47.054;15.408;2022-12-29T09:51:26;15.9;;;11.7;;
23252;SDS011;11795;47.054;15.408;2022-12-29T09:53:27;14.0;;;11.2;;
23252;SDS011;11795;47.054;15.408;2022-12-29T09:55:29;14.0;;;11.2;;
23252;SDS011;11795;47.054;15.408;2022-12-29T09:57:27;14.0;;;11.2;;
23252;SDS011;11795;47.054;15.408;2022-12-29T09:59:27;14.2;;;11.4;;
23252;SDS011;11795;47.054;15.408;2022-12-29T10:01:28;14.2;;;11.4;;
23252;SDS011;11795;47.054;15.408;2022-12-29T10:03:26;13.3;;;10.8;;
23252;SDS011;11795;47.054;15.408;2022-12-29T10:05:27;13.3;;;10.8;;
23252;SDS011;11795;47.054;15.408;2022-12-29T10:07:29;13.3;;;10.8;;
23252;SDS011;11795;47.054;15.408;2022-12-29T10:09:26;14.1;;;11.2;;
23252;SDS011;11795;47.054;15.408;2022-12-29T10:11:29;14.1;;;11.2;;
23252;SDS011;11795;47.054;15.408;2022-12-29T10:13:28;13.4;;;11.1;;
23252;SDS011;11795;47.054;15.408;2022-12-29T10:15:30;13.4;;;11.1;;
23252;SDS011;11795;47.054;15.408;2022-12-29T10:17:27;13.4;;;11.1;;
23252;SDS011;11795;47.054;15.408;2022-12-29T10:19:28;14.3;;;11.5;;
23252;SDS011;11795;47.054;15.408;2022-12-29T10:21:28;14.3;;;11.5;;
23252;SDS011;11795;47.054;15.408;2022-12-29T10:23:27;14.2;;;10.4;;
23252;SDS011;11795;47.054;15.408;2022-12-29T10:25:26;14.2;;;10.4;;
23252;SDS011;11795;47.054;15.408;2022-12-29T10:27:26;14.2;;;10.4;;
23252;SDS011;11795;47.054;15.408;2022-12-29T10:29:27;13.6;;;10.3;;
23252;SDS011;11795;47.054;15.408;2022-12-29T10:31:28;13.6;;;10.3;;
23252;SDS011;11795;47.054;15.408;2022-12-29T10:33:29;12.1;;;9.5;;
23252;SDS011;11795;47.054;15.408;2022-12-29T10:35:28;12.1;;;9.5;;
23252;SDS011;11795;47.054;15.408;2022-12-29T10:37:29;12.1;;;9.5;;
23252;SDS011;11795;47.054;15.408;2022-12-29T10:39:28;12.5;;;9.7;;
23252;SDS011;11795;47.054;15.408;2022-12-29T10:41:28;12.5;;;9.7;;
23252;SDS011;11795;47.054;15.408;2022-12-29T10:43:27;12.2;;;9.6;;
23252;SDS011;11795;47.054;15.408;2022-12-29T10:45:27;12.2;;;9.6;;
23252;SDS011;11795;47.054;15.408;2022-12-29T10:47:28;12.2;;;9.6;;
23252;SDS011;11795;47.054;15.408;2022-12-29T10:49:26;12.9;;;9.3;;
23252;SDS011;11795;47.054;15.408;2022-12-29T10:51:28;12.9;;;9.3;;
23252;SDS011;11795;47.054;15.408;2022-12-29T10:53:27;14.9;;;9.8;;
23252;SDS011;11795;47.054;15.408;2022-12-29T10:55:28;14.9;;;9.8;;
23252;SDS011;11795;47.054;15.408;2022-12-29T10:57:27;14.9;;;9.8;;
23252;SDS011;11795;47.054;15.408;2022-12-29T10:59:29;15.0;;;10.3;;
23252;SDS011;11795;47.054;15.408;2022-12-29T11:01:27;15.0;;;10.3;;
23252;SDS011;11795;47.054;15.408;2022-12-29T11:03:38;12.0;;;9.2;;
23252;SDS011;11795;47.054;15.408;2022-12-29T11:05:27;12.0;;;9.2;;
23252;SDS011;11795;47.054;15.408;2022-12-29T11:07:26;12.0;;;9.2;;
23252;SDS011;11795;47.054;15.408;2022-12-29T11:09:27;12.1;;;8.0;;
23252;SDS011;11795;47.054;15.408;2022-12-29T11:11:27;12.1;;;8.0;;
23252;SDS011;11795;47.054;15.408;2022-12-29T11:13:27;9.7;;;7.3;;
23252;SDS011;11795;47.054;15.408;2022-12-29T11:15:26;9.7;;;7.3;;
23252;SDS011;11795;47.054;15.408;2022-12-29T11:17:26;9.7;;;7.3;;
23252;SDS011;11795;47.054;15.408;2022-12-29T11:19:27;9.1;;;6.7;;
23252;SDS011;11795;47.054;15.408;2022-12-29T11:21:27;9.1;;;6.7;;
23252;SDS011;11795;47.054;15.408;2022-12-29T11:23:29;7.4;;;6.1;;
23252;SDS011;11795;47.054;15.408;2022-12-29T11:25:26;7.4;;;6.1;;
23252;SDS011;11795;47.054;15.408;2022-12-29T11:27:26;7.4;;;6.1;;
23252;SDS011;11795;47.054;15.408;2022-12-29T11:29:27;8.6;;;6.0;;
23252;SDS011;11795;47.054;15.408;2022-12-29T11:31:26;8.6;;;6.0;;
23252;SDS011;11795;47.054;15.408;2022-12-29T11:33:27;9.2;;;6.6;;
23252;SDS011;11795;47.054;15.408;2022-12-29T11:35:30;9.2;;;6.6;;
23252;SDS011;11795;47.054;15.408;2022-12-29T11:37:28;9.2;;;6.6;;
23252;SDS011;11795;47.054;15.408;2022-12-29T11:39:28;7.8;;;6.5;;
23252;SDS011;11795;47.054;15.408;2022-12-29T11:41:27;7.8;;;6.5;;
23252;SDS011;11795;47.054;15.408;2022-12-29T11:43:28;10.2;;;8.0;;
23252;SDS011;11795;47.054;15.408;2022-12-29T11:45:27;10.2;;;8.0;;
23252;SDS011;11795;47.054;15.408;2022-12-29T11:47:27;10.2;;;8.0;;
23252;SDS011;11795;47.054;15.408;2022-12-29T11:49:26;9.0;;;7.5;;
23252;SDS011;11795;47.054;15.408;2022-12-29T11:51:27;9.0;;;7.5;;
23252;SDS011;11795;47.054;15.408;2022-12-29T11:53:26;11.0;;;6.6;;
23252;SDS011;11795;47.054;15.408;2022-12-29T11:55:26;11.0;;;6.6;;
23252;SDS011;11795;47.054;15.408;2022-12-29T11:57:26;11.0;;;6.6;;
23252;SDS011;11795;47.054;15.408;2022-12-29T11:59:36;10.9;;;6.3;;